Blue Star Naxos — SZUI — position and weather

sailwx.info

Track history (hours):
 
Tides and Currents Weather Stations Pressure Air Temp Water Temp Dewpoint Dewpoint Depression Visibility Wind Speed Wind Dir Waves Ship Positions

Blue Star Naxos

Last reported at 2014-Sep-23 03:31 UTC. Time now 2014-Sep-23 04:17 UTC.
Position N 36°56' E 026°03'.

Length 124 m; draft 5 m.

Type: Passenger vessel. MMSI: 239923000.

Date/timePositionNaut miles runAvg speedWind from/ knotsBaromVisibWave heightAir tempDewpointWater temp
2014-Sep-23 03:31N 36°56' E 026°03'2221.9
2014-Sep-23 02:31N 36°38' E 026°18'3 1.3
2014-Sep-23 00:05N 36°36' E 026°20'1222.5
2014-Sep-22 23:33N 36°46' E 026°12'1412.5
2014-Sep-22 22:24N 36°54' E 025°58'1517.8
2014-Sep-22 21:33N 37°06' E 025°46'1918.9
2014-Sep-22 20:33N 37°07' E 025°22'8 8.4
2014-Sep-22 19:33N 37°09' E 025°12'9 8.6
2014-Sep-22 18:33N 37°08' E 025°02'2222.3
2014-Sep-22 17:33N 37°14' E 024°35'3322.4
2014-Sep-22 16:06N 37°30' E 023°59'1322.8
2014-Sep-22 15:33N 37°38' E 023°46'1919.8
2014-Sep-22 14:34N 37°57' E 023°38'0 0.4
2014-Sep-22 13:34N 37°57' E 023°38'0 0.0
2014-Sep-22 12:34N 37°57' E 023°38'7 7.1
2014-Sep-22 11:34N 37°50' E 023°40'6622.0
2014-Sep-22 08:33N 37°15' E 024°51'1717.1
2014-Sep-22 07:33N 37°05' E 025°09'1010.4
2014-Sep-22 06:33N 37°07' E 025°22'6 5.7
2014-Sep-22 05:33N 37°01' E 025°19'1312.6
2014-Sep-22 04:32N 36°52' E 025°31'9 8.9
2014-Sep-22 03:33N 36°55' E 025°41'7 1.8
2014-Sep-21 23:34N 36°51' E 025°49'1413.5
2014-Sep-21 22:33N 36°54' E 025°32'8 8.5
2014-Sep-21 21:34N 36°57' E 025°22'1312.6
2014-Sep-21 20:34N 37°09' E 025°19'11 9.3
2014-Sep-21 19:22N 37°11' E 025°05'1720.2
2014-Sep-21 18:30N 37°26' E 024°57'1212.3
2014-Sep-21 17:33N 37°31' E 024°43'2322.4
2014-Sep-21 16:31N 37°31' E 024°14'2222.7
2014-Sep-21 15:33N 37°39' E 023°48'1919.5
2014-Sep-21 14:33N 37°56' E 023°38'1 0.6
2014-Sep-21 13:33N 37°57' E 023°38'0 0.0
2014-Sep-21 12:33N 37°57' E 023°38'0 0.0
2014-Sep-21 11:33N 37°57' E 023°38'0 0.0
2014-Sep-21 10:33N 37°57' E 023°38'1 0.8
2014-Sep-21 09:33N 37°56' E 023°38'0 0.2
2014-Sep-21 08:33N 37°56' E 023°37'0 0.0
2014-Sep-21 07:33N 37°56' E 023°37'0 0.0
2014-Sep-21 06:33N 37°56' E 023°37'0 0.0
2014-Sep-21 05:33N 37°56' E 023°37'0 0.0
2014-Sep-21 04:33N 37°56' E 023°37'0 0.0
2014-Sep-21 03:33N 37°56' E 023°37'0 0.0
2014-Sep-21 02:33N 37°56' E 023°37'0 0.0
2014-Sep-21 01:33N 37°56' E 023°37'0 0.0
2014-Sep-21 00:32N 37°56' E 023°37'0 0.0
2014-Sep-20 23:33N 37°56' E 023°37'0 0.0
2014-Sep-20 22:33N 37°56' E 023°37'0 0.0
2014-Sep-20 21:33N 37°56' E 023°37'0 0.0
2014-Sep-20 20:33N 37°56' E 023°37'0 0.0
2014-Sep-20 19:33N 37°56' E 023°37'0 0.0
2014-Sep-20 18:33N 37°56' E 023°37'1 0.9
2014-Sep-20 17:33N 37°57' E 023°38'4 3.9
2014-Sep-20 16:33N 37°53' E 023°39'5120.6
2014-Sep-20 14:06N 37°31' E 024°36'1621.5
2014-Sep-20 13:20N 37°30' E 024°57'4 5.2
2014-Sep-20 12:30N 37°28' E 025°02'9 9.4
2014-Sep-20 11:33N 37°30' E 025°13'5 5.4
2014-Sep-20 10:33N 37°28' E 025°19'9 9.2
2014-Sep-20 09:33N 37°32' E 025°09'1211.2
2014-Sep-20 08:30N 37°26' E 024°57'1414.7
2014-Sep-20 07:33N 37°32' E 024°40'2221.8
2014-Sep-20 06:33N 37°32' E 024°13'2222.1
2014-Sep-20 05:33N 37°39' E 023°46'1919.0
2014-Sep-20 04:34N 37°57' E 023°38'0 0.3
2014-Sep-20 03:34N 37°57' E 023°38'0 0.0
2014-Sep-20 02:34N 37°57' E 023°38'0 0.0
2014-Sep-20 01:34N 37°57' E 023°38'0 0.0
2014-Sep-20 00:34N 37°57' E 023°38'0 0.0
2014-Sep-19 23:34N 37°57' E 023°38'0 0.0
2014-Sep-19 22:34N 37°57' E 023°38'0 0.0
2014-Sep-19 21:33N 37°57' E 023°38'0 0.0
2014-Sep-19 20:34N 37°57' E 023°38'0 0.0
2014-Sep-19 19:33N 37°57' E 023°38'0 0.0
2014-Sep-19 18:34N 37°57' E 023°38'0 0.0
2014-Sep-19 17:34N 37°57' E 023°38'2 2.3
2014-Sep-19 16:33N 37°55' E 023°38'2120.7
2014-Sep-19 15:32N 37°38' E 023°55'4322.0
2014-Sep-19 13:33N 37°31' E 024°49'8 7.8
2014-Sep-19 12:33N 37°26' E 024°57'1312.9
2014-Sep-19 11:33N 37°30' E 025°12'6 6.3
2014-Sep-19 10:33N 37°28' E 025°20'9 9.2
2014-Sep-19 09:33N 37°32' E 025°09'1211.8
2014-Sep-19 08:33N 37°26' E 024°57'1312.8
2014-Sep-19 07:31N 37°32' E 024°41'2421.8
2014-Sep-19 06:26N 37°32' E 024°11'2222.7
2014-Sep-19 05:28N 37°39' E 023°46'1820.0
2014-Sep-19 04:33N 37°57' E 023°38'0 0.3
2014-Sep-19 03:33N 37°57' E 023°38'0 0.0
2014-Sep-19 02:33N 37°57' E 023°38'0 0.0
2014-Sep-19 01:33N 37°57' E 023°38'0 0.0
2014-Sep-19 00:33N 37°57' E 023°38'0 0.0
2014-Sep-18 23:33N 37°57' E 023°38'0 0.0
2014-Sep-18 22:33N 37°57' E 023°38'0 0.0
2014-Sep-18 21:33N 37°57' E 023°38'0 0.0
2014-Sep-18 20:33N 37°57' E 023°38'0 0.0
2014-Sep-18 19:33N 37°57' E 023°38'0 0.0
2014-Sep-18 18:33N 37°57' E 023°38'0 0.0
2014-Sep-18 17:33N 37°57' E 023°38'2 2.3
2014-Sep-18 16:33N 37°55' E 023°38'4320.5
2014-Sep-18 14:28N 37°31' E 024°23'2222.4
2014-Sep-18 13:30N 37°31' E 024°50'8 7.8
2014-Sep-18 12:30N 37°26' E 024°57'1313.4
2014-Sep-18 11:33N 37°30' E 025°13'5 5.5
2014-Sep-18 10:33N 37°28' E 025°20'9 9.3
2014-Sep-18 09:33N 37°32' E 025°09'1211.5
2014-Sep-18 08:32N 37°26' E 024°57'1413.6
2014-Sep-18 07:32N 37°32' E 024°41'2321.8
2014-Sep-18 06:29N 37°32' E 024°12'2422.4
2014-Sep-18 05:25N 37°40' E 023°43'1720.2
2014-Sep-18 04:34N 37°57' E 023°38'0 0.2
2014-Sep-18 03:33N 37°57' E 023°38'0 0.0
2014-Sep-18 02:34N 37°57' E 023°38'0 0.0
2014-Sep-18 01:34N 37°57' E 023°38'0 0.0
2014-Sep-18 00:34N 37°57' E 023°38'0 0.0
2014-Sep-17 23:33N 37°57' E 023°38'0 0.0
2014-Sep-17 22:34N 37°57' E 023°38'0 0.0
2014-Sep-17 21:33N 37°57' E 023°38'0 0.0
2014-Sep-17 20:33N 37°57' E 023°38'0 0.0
2014-Sep-17 19:33N 37°57' E 023°38'0 0.0
2014-Sep-17 18:33N 37°57' E 023°38'0 0.0
2014-Sep-17 17:33N 37°57' E 023°38'3 2.7
2014-Sep-17 16:34N 37°54' E 023°38'4320.5
2014-Sep-17 14:29N 37°31' E 024°23'2022.1
2014-Sep-17 13:33N 37°31' E 024°48'10 8.7
2014-Sep-17 12:23N 37°28' E 025°01'1011.7
2014-Sep-17 11:34N 37°30' E 025°12'6 6.0
2014-Sep-17 10:33N 37°28' E 025°20'9 9.2
2014-Sep-17 09:33N 37°32' E 025°09'1211.4
2014-Sep-17 08:31N 37°26' E 024°57'5919.1
2014-Sep-17 05:26N 37°40' E 023°44'1820.1
2014-Sep-17 04:33N 37°57' E 023°38'0 0.2
2014-Sep-17 03:33N 37°57' E 023°38'0 0.0
2014-Sep-17 02:33N 37°57' E 023°38'0 0.0
2014-Sep-17 01:33N 37°57' E 023°38'0 0.0
2014-Sep-17 00:33N 37°57' E 023°38'0 0.0
2014-Sep-16 23:33N 37°57' E 023°38'0 0.0
2014-Sep-16 22:34N 37°57' E 023°38'0 0.0
2014-Sep-16 21:33N 37°57' E 023°38'0 0.0
2014-Sep-16 20:33N 37°57' E 023°38'0 0.0
2014-Sep-16 19:33N 37°57' E 023°38'0 0.0
2014-Sep-16 18:33N 37°57' E 023°38'0 0.0
2014-Sep-16 17:33N 37°57' E 023°38'3 2.9
2014-Sep-16 16:33N 37°54' E 023°38'4420.7
2014-Sep-16 14:27N 37°31' E 024°25'2621.7
2014-Sep-16 13:16N 37°29' E 024°57'3 4.3
2014-Sep-16 12:32N 37°26' E 024°57'1313.2
2014-Sep-16 11:33N 37°30' E 025°13'6 5.8
2014-Sep-16 10:33N 37°28' E 025°20'9 9.3
2014-Sep-16 09:33N 37°32' E 025°09'1211.8
2014-Sep-16 08:33N 37°26' E 024°57'1212.2
2014-Sep-16 07:33N 37°31' E 024°42'2322.5
2014-Sep-16 06:33N 37°31' E 024°14'2622.6
2014-Sep-16 05:25N 37°40' E 023°44'1720.0
2014-Sep-16 04:33N 37°57' E 023°38'0 0.2
2014-Sep-16 03:33N 37°57' E 023°38'0 0.0
2014-Sep-16 02:33N 37°57' E 023°38'0 0.0
2014-Sep-16 01:33N 37°57' E 023°38'0 0.0
2014-Sep-16 00:33N 37°57' E 023°38'0 0.0
2014-Sep-15 23:33N 37°57' E 023°38'0 0.0
2014-Sep-15 22:33N 37°57' E 023°38'0 0.0
2014-Sep-15 21:33N 37°57' E 023°38'0 0.0
2014-Sep-15 20:33N 37°57' E 023°38'0 0.0
2014-Sep-15 19:33N 37°57' E 023°38'0 0.0
2014-Sep-15 18:33N 37°57' E 023°38'0 0.0
2014-Sep-15 17:33N 37°57' E 023°38'5 4.6
2014-Sep-15 16:33N 37°52' E 023°39'4020.1
2014-Sep-15 14:33N 37°31' E 024°22'2820.6
2014-Sep-15 13:12N 37°29' E 024°57'4 4.2
2014-Sep-15 12:20N 37°28' E 025°02'911.2
2014-Sep-15 11:33N 37°30' E 025°12'6 6.1
2014-Sep-15 10:32N 37°28' E 025°20'9 9.3
2014-Sep-15 09:33N 37°32' E 025°09'2110.7
2014-Sep-15 07:34N 37°31' E 024°43'2522.6
2014-Sep-15 06:27N 37°32' E 024°11'2422.8
2014-Sep-15 05:25N 37°40' E 023°43'1719.7
2014-Sep-15 04:34N 37°57' E 023°38'0 0.1
2014-Sep-15 03:34N 37°57' E 023°38'0 0.0
2014-Sep-15 02:34N 37°57' E 023°38'0 0.0
2014-Sep-15 01:34N 37°57' E 023°38'0 0.0
2014-Sep-15 00:34N 37°57' E 023°38'0 0.0
2014-Sep-14 23:34N 37°57' E 023°38'0 0.0
2014-Sep-14 22:33N 37°57' E 023°38'0 0.0
2014-Sep-14 21:34N 37°57' E 023°38'0 0.0
2014-Sep-14 20:34N 37°57' E 023°38'0 0.0
2014-Sep-14 19:34N 37°57' E 023°38'0 0.0
2014-Sep-14 18:34N 37°57' E 023°38'0 0.0
2014-Sep-14 17:34N 37°57' E 023°38'1 1.4
2014-Sep-14 16:33N 37°56' E 023°37'4420.7
2014-Sep-14 14:26N 37°31' E 024°22'2722.7
2014-Sep-14 13:14N 37°30' E 024°57'4 5.3
2014-Sep-14 12:33N 37°26' E 024°58'1312.8
2014-Sep-14 11:33N 37°30' E 025°13'6 5.6
2014-Sep-14 10:33N 37°28' E 025°19'4 4.4
2014-Sep-14 09:33N 37°29' E 025°14'1414.0
2014-Sep-14 08:33N 37°26' E 024°57'1312.5
2014-Sep-14 07:33N 37°31' E 024°43'2322.2
2014-Sep-14 06:31N 37°32' E 024°14'2622.9
2014-Sep-14 05:23N 37°40' E 023°43'16 1.3
2014-Sep-13 16:33N 37°56' E 023°37'4420.4
2014-Sep-13 14:23N 37°31' E 024°23'1923.1
2014-Sep-13 13:33N 37°31' E 024°47'1210.0
2014-Sep-13 12:24N 37°28' E 025°01'1011.5
2014-Sep-13 11:33N 37°30' E 025°13'5 5.3
2014-Sep-13 10:34N 37°28' E 025°19'9 9.1
2014-Sep-13 09:33N 37°32' E 025°09'1211.8
2014-Sep-13 08:33N 37°26' E 024°57'1414.5
2014-Sep-13 07:33N 37°31' E 024°39'4622.1
2014-Sep-13 05:29N 37°40' E 023°43'1717.4
2014-Sep-13 04:31N 37°57' E 023°38'0 0.0
2014-Sep-13 03:33N 37°57' E 023°38'  
Track history (hours):
 
Tides and Currents Weather Stations Pressure Air Temp Water Temp Dewpoint Dewpoint Depression Visibility Wind Speed Wind Dir Waves Ship Positions

Blue Star Naxos

Last reported at 2014-Sep-23 03:31 UTC. Time now 2014-Sep-23 04:17 UTC.
Position N 36°56' E 026°03'.

Length 124 m; draft 5 m.

Type: Passenger vessel. MMSI: 239923000.

Date/timePositionNaut miles runAvg speedWind from/ knotsBaromVisibWave heightAir tempDewpointWater temp
2014-Sep-23 03:31N 36°56' E 026°03'2221.9
2014-Sep-23 02:31N 36°38' E 026°18'3 1.3
2014-Sep-23 00:05N 36°36' E 026°20'1222.5
2014-Sep-22 23:33N 36°46' E 026°12'1412.5
2014-Sep-22 22:24N 36°54' E 025°58'1517.8
2014-Sep-22 21:33N 37°06' E 025°46'1918.9
2014-Sep-22 20:33N 37°07' E 025°22'8 8.4
2014-Sep-22 19:33N 37°09' E 025°12'9 8.6
2014-Sep-22 18:33N 37°08' E 025°02'2222.3
2014-Sep-22 17:33N 37°14' E 024°35'3322.4
2014-Sep-22 16:06N 37°30' E 023°59'1322.8
2014-Sep-22 15:33N 37°38' E 023°46'1919.8
2014-Sep-22 14:34N 37°57' E 023°38'0 0.4
2014-Sep-22 13:34N 37°57' E 023°38'0 0.0
2014-Sep-22 12:34N 37°57' E 023°38'7 7.1
2014-Sep-22 11:34N 37°50' E 023°40'6622.0
2014-Sep-22 08:33N 37°15' E 024°51'1717.1
2014-Sep-22 07:33N 37°05' E 025°09'1010.4
2014-Sep-22 06:33N 37°07' E 025°22'6 5.7
2014-Sep-22 05:33N 37°01' E 025°19'1312.6
2014-Sep-22 04:32N 36°52' E 025°31'9 8.9
2014-Sep-22 03:33N 36°55' E 025°41'7 1.8
2014-Sep-21 23:34N 36°51' E 025°49'1413.5
2014-Sep-21 22:33N 36°54' E 025°32'8 8.5
2014-Sep-21 21:34N 36°57' E 025°22'1312.6
2014-Sep-21 20:34N 37°09' E 025°19'11 9.3
2014-Sep-21 19:22N 37°11' E 025°05'1720.2
2014-Sep-21 18:30N 37°26' E 024°57'1212.3
2014-Sep-21 17:33N 37°31' E 024°43'2322.4
2014-Sep-21 16:31N 37°31' E 024°14'2222.7
2014-Sep-21 15:33N 37°39' E 023°48'1919.5
2014-Sep-21 14:33N 37°56' E 023°38'1 0.6
2014-Sep-21 13:33N 37°57' E 023°38'0 0.0
2014-Sep-21 12:33N 37°57' E 023°38'0 0.0
2014-Sep-21 11:33N 37°57' E 023°38'0 0.0
2014-Sep-21 10:33N 37°57' E 023°38'1 0.8
2014-Sep-21 09:33N 37°56' E 023°38'0 0.2
2014-Sep-21 08:33N 37°56' E 023°37'0 0.0
2014-Sep-21 07:33N 37°56' E 023°37'0 0.0
2014-Sep-21 06:33N 37°56' E 023°37'0 0.0
2014-Sep-21 05:33N 37°56' E 023°37'0 0.0
2014-Sep-21 04:33N 37°56' E 023°37'0 0.0
2014-Sep-21 03:33N 37°56' E 023°37'0 0.0
2014-Sep-21 02:33N 37°56' E 023°37'0 0.0
2014-Sep-21 01:33N 37°56' E 023°37'0 0.0
2014-Sep-21 00:32N 37°56' E 023°37'0 0.0
2014-Sep-20 23:33N 37°56' E 023°37'0 0.0
2014-Sep-20 22:33N 37°56' E 023°37'0 0.0
2014-Sep-20 21:33N 37°56' E 023°37'0 0.0
2014-Sep-20 20:33N 37°56' E 023°37'0 0.0
2014-Sep-20 19:33N 37°56' E 023°37'0 0.0
2014-Sep-20 18:33N 37°56' E 023°37'1 0.9
2014-Sep-20 17:33N 37°57' E 023°38'4 3.9
2014-Sep-20 16:33N 37°53' E 023°39'5120.6
2014-Sep-20 14:06N 37°31' E 024°36'1621.5
2014-Sep-20 13:20N 37°30' E 024°57'4 5.2
2014-Sep-20 12:30N 37°28' E 025°02'9 9.4
2014-Sep-20 11:33N 37°30' E 025°13'5 5.4
2014-Sep-20 10:33N 37°28' E 025°19'9 9.2
2014-Sep-20 09:33N 37°32' E 025°09'1211.2
2014-Sep-20 08:30N 37°26' E 024°57'1414.7
2014-Sep-20 07:33N 37°32' E 024°40'2221.8
2014-Sep-20 06:33N 37°32' E 024°13'2222.1
2014-Sep-20 05:33N 37°39' E 023°46'1919.0
2014-Sep-20 04:34N 37°57' E 023°38'0 0.3
2014-Sep-20 03:34N 37°57' E 023°38'0 0.0
2014-Sep-20 02:34N 37°57' E 023°38'0 0.0
2014-Sep-20 01:34N 37°57' E 023°38'0 0.0
2014-Sep-20 00:34N 37°57' E 023°38'0 0.0
2014-Sep-19 23:34N 37°57' E 023°38'0 0.0
2014-Sep-19 22:34N 37°57' E 023°38'0 0.0
2014-Sep-19 21:33N 37°57' E 023°38'0 0.0
2014-Sep-19 20:34N 37°57' E 023°38'0 0.0
2014-Sep-19 19:33N 37°57' E 023°38'0 0.0
2014-Sep-19 18:34N 37°57' E 023°38'0 0.0
2014-Sep-19 17:34N 37°57' E 023°38'2 2.3
2014-Sep-19 16:33N 37°55' E 023°38'2120.7
2014-Sep-19 15:32N 37°38' E 023°55'4322.0
2014-Sep-19 13:33N 37°31' E 024°49'8 7.8
2014-Sep-19 12:33N 37°26' E 024°57'1312.9
2014-Sep-19 11:33N 37°30' E 025°12'6 6.3
2014-Sep-19 10:33N 37°28' E 025°20'9 9.2
2014-Sep-19 09:33N 37°32' E 025°09'1211.8
2014-Sep-19 08:33N 37°26' E 024°57'1312.8
2014-Sep-19 07:31N 37°32' E 024°41'2421.8
2014-Sep-19 06:26N 37°32' E 024°11'2222.7
2014-Sep-19 05:28N 37°39' E 023°46'1820.0
2014-Sep-19 04:33N 37°57' E 023°38'0 0.3
2014-Sep-19 03:33N 37°57' E 023°38'0 0.0
2014-Sep-19 02:33N 37°57' E 023°38'0 0.0
2014-Sep-19 01:33N 37°57' E 023°38'0 0.0
2014-Sep-19 00:33N 37°57' E 023°38'0 0.0
2014-Sep-18 23:33N 37°57' E 023°38'0 0.0
2014-Sep-18 22:33N 37°57' E 023°38'0 0.0
2014-Sep-18 21:33N 37°57' E 023°38'0 0.0
2014-Sep-18 20:33N 37°57' E 023°38'0 0.0
2014-Sep-18 19:33N 37°57' E 023°38'0 0.0
2014-Sep-18 18:33N 37°57' E 023°38'0 0.0
2014-Sep-18 17:33N 37°57' E 023°38'2 2.3
2014-Sep-18 16:33N 37°55' E 023°38'4320.5
2014-Sep-18 14:28N 37°31' E 024°23'2222.4
2014-Sep-18 13:30N 37°31' E 024°50'8 7.8
2014-Sep-18 12:30N 37°26' E 024°57'1313.4
2014-Sep-18 11:33N 37°30' E 025°13'5 5.5
2014-Sep-18 10:33N 37°28' E 025°20'9 9.3
2014-Sep-18 09:33N 37°32' E 025°09'1211.5
2014-Sep-18 08:32N 37°26' E 024°57'1413.6
2014-Sep-18 07:32N 37°32' E 024°41'2321.8
2014-Sep-18 06:29N 37°32' E 024°12'2422.4
2014-Sep-18 05:25N 37°40' E 023°43'1720.2
2014-Sep-18 04:34N 37°57' E 023°38'0 0.2
2014-Sep-18 03:33N 37°57' E 023°38'0 0.0
2014-Sep-18 02:34N 37°57' E 023°38'0 0.0
2014-Sep-18 01:34N 37°57' E 023°38'0 0.0
2014-Sep-18 00:34N 37°57' E 023°38'0 0.0
2014-Sep-17 23:33N 37°57' E 023°38'0 0.0
2014-Sep-17 22:34N 37°57' E 023°38'0 0.0
2014-Sep-17 21:33N 37°57' E 023°38'0 0.0
2014-Sep-17 20:33N 37°57' E 023°38'0 0.0
2014-Sep-17 19:33N 37°57' E 023°38'0 0.0
2014-Sep-17 18:33N 37°57' E 023°38'0 0.0
2014-Sep-17 17:33N 37°57' E 023°38'3 2.7
2014-Sep-17 16:34N 37°54' E 023°38'4320.5
2014-Sep-17 14:29N 37°31' E 024°23'2022.1
2014-Sep-17 13:33N 37°31' E 024°48'10 8.7
2014-Sep-17 12:23N 37°28' E 025°01'1011.7
2014-Sep-17 11:34N 37°30' E 025°12'6 6.0
2014-Sep-17 10:33N 37°28' E 025°20'9 9.2
2014-Sep-17 09:33N 37°32' E 025°09'1211.4
2014-Sep-17 08:31N 37°26' E 024°57'5919.1
2014-Sep-17 05:26N 37°40' E 023°44'1820.1
2014-Sep-17 04:33N 37°57' E 023°38'0 0.2
2014-Sep-17 03:33N 37°57' E 023°38'0 0.0
2014-Sep-17 02:33N 37°57' E 023°38'0 0.0
2014-Sep-17 01:33N 37°57' E 023°38'0 0.0
2014-Sep-17 00:33N 37°57' E 023°38'0 0.0
2014-Sep-16 23:33N 37°57' E 023°38'0 0.0
2014-Sep-16 22:34N 37°57' E 023°38'0 0.0
2014-Sep-16 21:33N 37°57' E 023°38'0 0.0
2014-Sep-16 20:33N 37°57' E 023°38'0 0.0
2014-Sep-16 19:33N 37°57' E 023°38'0 0.0
2014-Sep-16 18:33N 37°57' E 023°38'0 0.0
2014-Sep-16 17:33N 37°57' E 023°38'3 2.9
2014-Sep-16 16:33N 37°54' E 023°38'4420.7
2014-Sep-16 14:27N 37°31' E 024°25'2621.7
2014-Sep-16 13:16N 37°29' E 024°57'3 4.3
2014-Sep-16 12:32N 37°26' E 024°57'1313.2
2014-Sep-16 11:33N 37°30' E 025°13'6 5.8
2014-Sep-16 10:33N 37°28' E 025°20'9 9.3
2014-Sep-16 09:33N 37°32' E 025°09'1211.8
2014-Sep-16 08:33N 37°26' E 024°57'1212.2
2014-Sep-16 07:33N 37°31' E 024°42'2322.5
2014-Sep-16 06:33N 37°31' E 024°14'2622.6
2014-Sep-16 05:25N 37°40' E 023°44'1720.0
2014-Sep-16 04:33N 37°57' E 023°38'0 0.2
2014-Sep-16 03:33N 37°57' E 023°38'0 0.0
2014-Sep-16 02:33N 37°57' E 023°38'0 0.0
2014-Sep-16 01:33N 37°57' E 023°38'0 0.0
2014-Sep-16 00:33N 37°57' E 023°38'0 0.0
2014-Sep-15 23:33N 37°57' E 023°38'0 0.0
2014-Sep-15 22:33N 37°57' E 023°38'0 0.0
2014-Sep-15 21:33N 37°57' E 023°38'0 0.0
2014-Sep-15 20:33N 37°57' E 023°38'0 0.0
2014-Sep-15 19:33N 37°57' E 023°38'0 0.0
2014-Sep-15 18:33N 37°57' E 023°38'0 0.0
2014-Sep-15 17:33N 37°57' E 023°38'5 4.6
2014-Sep-15 16:33N 37°52' E 023°39'4020.1
2014-Sep-15 14:33N 37°31' E 024°22'2820.6
2014-Sep-15 13:12N 37°29' E 024°57'4 4.2
2014-Sep-15 12:20N 37°28' E 025°02'911.2
2014-Sep-15 11:33N 37°30' E 025°12'6 6.1
2014-Sep-15 10:32N 37°28' E 025°20'9 9.3
2014-Sep-15 09:33N 37°32' E 025°09'2110.7
2014-Sep-15 07:34N 37°31' E 024°43'2522.6
2014-Sep-15 06:27N 37°32' E 024°11'2422.8
2014-Sep-15 05:25N 37°40' E 023°43'1719.7
2014-Sep-15 04:34N 37°57' E 023°38'0 0.1
2014-Sep-15 03:34N 37°57' E 023°38'0 0.0
2014-Sep-15 02:34N 37°57' E 023°38'0 0.0
2014-Sep-15 01:34N 37°57' E 023°38'0 0.0
2014-Sep-15 00:34N 37°57' E 023°38'0 0.0
2014-Sep-14 23:34N 37°57' E 023°38'0 0.0
2014-Sep-14 22:33N 37°57' E 023°38'0 0.0
2014-Sep-14 21:34N 37°57' E 023°38'0 0.0
2014-Sep-14 20:34N 37°57' E 023°38'0 0.0
2014-Sep-14 19:34N 37°57' E 023°38'0 0.0
2014-Sep-14 18:34N 37°57' E 023°38'0 0.0
2014-Sep-14 17:34N 37°57' E 023°38'1 1.4
2014-Sep-14 16:33N 37°56' E 023°37'4420.7
2014-Sep-14 14:26N 37°31' E 024°22'2722.7
2014-Sep-14 13:14N 37°30' E 024°57'4 5.3
2014-Sep-14 12:33N 37°26' E 024°58'1312.8
2014-Sep-14 11:33N 37°30' E 025°13'6 5.6
2014-Sep-14 10:33N 37°28' E 025°19'4 4.4
2014-Sep-14 09:33N 37°29' E 025°14'1414.0
2014-Sep-14 08:33N 37°26' E 024°57'1312.5
2014-Sep-14 07:33N 37°31' E 024°43'2322.2
2014-Sep-14 06:31N 37°32' E 024°14'2622.9
2014-Sep-14 05:23N 37°40' E 023°43'16 1.3
2014-Sep-13 16:33N 37°56' E 023°37'4420.4
2014-Sep-13 14:23N 37°31' E 024°23'1923.1
2014-Sep-13 13:33N 37°31' E 024°47'1210.0
2014-Sep-13 12:24N 37°28' E 025°01'1011.5
2014-Sep-13 11:33N 37°30' E 025°13'5 5.3
2014-Sep-13 10:34N 37°28' E 025°19'9 9.1
2014-Sep-13 09:33N 37°32' E 025°09'1211.8
2014-Sep-13 08:33N 37°26' E 024°57'1414.5
2014-Sep-13 07:33N 37°31' E 024°39'4622.1
2014-Sep-13 05:29N 37°40' E 023°43'1717.4
2014-Sep-13 04:31N 37°57' E 023°38'0 0.0
2014-Sep-13 03:33N 37°57' E 023°38'  

Dump ship's entire track history